Decoded Metar for VOML (MANGALORE in INDIA) (IATA:IXE) | Meteo·Mobile Aviation Weather
aviador You're here:

VOML Decoded Metar

MANGALORE in INDIA
Report Time2019-01-20 21:00:00
UTC Time2019-01-20 21:24:41
Flight Rules mvfr MVFR
Wind110° at 03 kt
W.Decomp.*RWY 09: 2.8 kt HW 1.1 kt RCW
RWY 06: 1.9 kt HW 2.3 kt RCW
W.Rank110° ranks 5
Current wind is below 110° avg. (4.1)
Visibility6000 m
Phenomena:N/A
Clouds:N/A
Expected CloudBase > 2,000 ft AGL from Temp-Dew spread
CeilingNone
Temp22°C (ISA +8)
Dew Point17°C (73% RH)
QNH1012 hPa
Density Alt1,522 ft
Elevation338 ft
Report Wrong Elevation
Raw Report
METAR VOML 202100Z 11003KT 6000 NSC 22/17 Q1012 NOSIG=

Extra information for VOML:More info

Metar Taf Metar & Taf Last 4 Metars F.Rules Stats Wind Profile Meteogram Temp Stats Airport Information Weather charts Add Link Nearby VenuesMetar ALERT Operation Metar Decoded Social comments